createdAt,value
2022-12-05T00:02:08.944Z,12.63
2022-12-05T00:04:37.662Z,12.80
2022-12-05T00:07:06.072Z,12.37
2022-12-05T00:09:34.489Z,13.07
2022-12-05T00:12:04.256Z,12.23
2022-12-05T00:14:32.704Z,11.97
2022-12-05T00:17:01.153Z,11.77
2022-12-05T00:19:29.662Z,10.83
2022-12-05T00:21:58.721Z,13.87
2022-12-05T00:24:30.272Z,13.83
2022-12-05T00:26:58.724Z,12.10
2022-12-05T00:29:28.917Z,13.47
2022-12-05T00:31:57.588Z,11.67
2022-12-05T00:34:26.325Z,13.47
2022-12-05T00:36:54.751Z,12.63
2022-12-05T00:39:23.226Z,13.83
2022-12-05T00:41:51.649Z,13.57
2022-12-05T00:44:20.041Z,13.90
2022-12-05T00:46:49.824Z,13.33
2022-12-05T00:49:18.284Z,12.33
2022-12-05T00:51:46.710Z,12.83
2022-12-05T00:54:15.999Z,14.57
2022-12-05T00:56:44.783Z,13.17
2022-12-05T00:59:16.280Z,14.43
2022-12-05T01:01:45.360Z,14.27
2022-12-05T01:04:16.452Z,12.90
2022-12-05T01:06:45.405Z,12.70
2022-12-05T01:09:15.191Z,14.30
2022-12-05T01:11:44.154Z,14.30
2022-12-05T01:14:12.666Z,14.77
2022-12-05T01:16:41.749Z,14.90
2022-12-05T01:19:12.725Z,13.97
2022-12-05T01:21:42.656Z,13.87
2022-12-05T01:24:11.636Z,15.50
2022-12-05T01:26:40.113Z,13.63
2022-12-05T01:29:08.688Z,15.03
2022-12-05T01:31:38.825Z,14.73
2022-12-05T01:34:08.721Z,14.57
2022-12-05T01:36:39.297Z,17.67
2022-12-05T01:39:09.814Z,16.73
2022-12-05T01:41:39.638Z,16.60
2022-12-05T01:44:09.677Z,17.73
2022-12-05T01:46:39.393Z,15.87
2022-12-05T01:49:10.934Z,17.23
2022-12-05T01:51:40.536Z,16.70
2022-12-05T01:54:11.088Z,17.87
2022-12-05T01:56:40.078Z,18.00
2022-12-05T01:59:12.345Z,16.43
2022-12-05T02:01:41.400Z,17.67
2022-12-05T02:04:13.068Z,16.73
2022-12-05T02:06:41.648Z,18.80
2022-12-05T02:09:11.522Z,19.93
2022-12-05T02:11:46.046Z,17.83
2022-12-05T02:14:22.096Z,17.60
2022-12-05T02:16:55.826Z,19.03
2022-12-05T02:19:33.113Z,16.63
2022-12-05T02:22:10.969Z,16.37
2022-12-05T02:24:54.515Z,14.53
2022-12-05T02:27:40.817Z,15.90
2022-12-05T02:30:12.534Z,13.60
2022-12-05T02:32:48.840Z,14.03
2022-12-05T02:35:26.064Z,15.37
2022-12-05T02:37:56.656Z,14.17
2022-12-05T02:40:28.599Z,12.90
2022-12-05T02:43:00.827Z,14.37
2022-12-05T02:45:31.930Z,13.37
2022-12-05T02:48:01.220Z,14.67
2022-12-05T02:50:32.973Z,14.33
2022-12-05T02:53:04.052Z,13.37
2022-12-05T02:55:33.034Z,13.93
2022-12-05T02:58:03.614Z,14.83
2022-12-05T03:00:33.471Z,13.40
2022-12-05T03:03:02.597Z,12.87
2022-12-05T03:05:39.811Z,12.97
2022-12-05T03:08:10.687Z,13.20
2022-12-05T03:10:42.375Z,13.03
2022-12-05T03:13:12.424Z,13.47
2022-12-05T03:15:43.745Z,12.87
2022-12-05T03:18:14.019Z,12.03
2022-12-05T03:20:45.688Z,12.13
2022-12-05T03:23:15.913Z,12.07
2022-12-05T03:25:48.151Z,13.57
2022-12-05T03:28:20.771Z,14.30
2022-12-05T03:30:56.721Z,14.00
2022-12-05T03:33:27.768Z,13.37
2022-12-05T03:36:01.461Z,11.83
2022-12-05T03:38:32.366Z,12.50
2022-12-05T03:41:06.196Z,14.93
2022-12-05T03:43:36.904Z,14.33
2022-12-05T03:46:08.617Z,13.93
2022-12-05T03:48:40.457Z,14.13
2022-12-05T03:51:11.097Z,13.57
2022-12-05T03:53:42.892Z,13.20
2022-12-05T03:56:12.588Z,14.80
2022-12-05T03:58:42.929Z,13.00
2022-12-05T04:01:13.894Z,14.10
2022-12-05T04:03:45.629Z,13.87
2022-12-05T04:06:20.686Z,16.27
2022-12-05T04:08:52.061Z,15.00
2022-12-05T04:11:22.649Z,15.10
2022-12-05T04:13:53.992Z,14.60
2022-12-05T04:16:43.517Z,15.33
2022-12-05T04:19:13.667Z,13.97
2022-12-05T04:21:43.894Z,14.90
2022-12-05T04:24:30.695Z,14.57
2022-12-05T04:27:06.161Z,14.33
2022-12-05T04:29:35.810Z,16.07
2022-12-05T04:32:08.753Z,15.80
2022-12-05T04:34:40.552Z,15.40
2022-12-05T04:37:12.221Z,14.73
2022-12-05T04:39:43.625Z,17.20
2022-12-05T04:42:13.731Z,15.20
2022-12-05T04:44:44.730Z,17.23
2022-12-05T04:47:15.817Z,14.90
2022-12-05T04:49:48.042Z,15.50
2022-12-05T04:52:20.851Z,17.00
2022-12-05T04:54:51.431Z,17.23
2022-12-05T04:57:21.251Z,16.83
2022-12-05T04:59:49.919Z,17.33
2022-12-05T05:02:21.630Z,16.20
2022-12-05T05:04:51.998Z,14.67
2022-12-05T05:07:21.340Z,16.00
2022-12-05T05:09:49.828Z,14.77
2022-12-05T05:12:19.297Z,14.60
2022-12-05T05:14:47.981Z,15.30
2022-12-05T05:17:16.384Z,15.73
2022-12-05T05:19:49.452Z,16.17
2022-12-05T05:22:17.866Z,14.43
2022-12-05T05:24:46.297Z,15.27
2022-12-05T05:27:14.725Z,14.87
2022-12-05T05:29:43.211Z,16.23
2022-12-05T05:32:11.941Z,15.03
2022-12-05T05:34:40.409Z,14.97
2022-12-05T05:37:10.237Z,14.23
2022-12-05T05:39:38.870Z,13.97
2022-12-05T05:42:07.460Z,15.30
2022-12-05T05:44:36.067Z,13.67
2022-12-05T05:47:04.792Z,14.07
2022-12-05T05:49:33.329Z,15.93
2022-12-05T05:52:01.768Z,18.00
2022-12-05T05:54:31.755Z,14.37
2022-12-05T05:57:00.222Z,14.97
2022-12-05T05:59:28.860Z,14.00
2022-12-05T06:01:57.346Z,14.83
2022-12-05T06:04:25.894Z,15.57
2022-12-05T06:06:54.408Z,13.63
2022-12-05T06:09:25.652Z,14.13
2022-12-05T06:11:55.422Z,16.47
2022-12-05T06:14:24.111Z,14.67
2022-12-05T06:16:55.801Z,16.57
2022-12-05T06:19:24.341Z,14.33
2022-12-05T06:21:52.852Z,15.87
2022-12-05T06:24:21.272Z,14.67
2022-12-05T06:26:49.691Z,16.37
2022-12-05T06:29:22.847Z,15.07
2022-12-05T06:31:55.751Z,16.53
2022-12-05T06:34:26.931Z,15.63
2022-12-05T06:36:55.389Z,16.60
2022-12-05T06:39:25.221Z,13.83
2022-12-05T06:41:53.800Z,15.53
2022-12-05T06:44:27.042Z,14.27
2022-12-05T06:46:56.092Z,13.33
2022-12-05T06:49:31.587Z,14.13
2022-12-05T06:52:02.286Z,15.73
2022-12-05T06:54:30.721Z,14.47
2022-12-05T06:56:59.207Z,16.23
2022-12-05T06:59:29.447Z,13.80
2022-12-05T07:02:00.001Z,13.67
2022-12-05T07:04:31.029Z,16.13
2022-12-05T07:06:59.922Z,15.67
2022-12-05T07:09:46.116Z,14.00
2022-12-05T07:12:15.909Z,15.87
2022-12-05T07:14:48.197Z,14.40
2022-12-05T07:17:17.351Z,16.20
2022-12-05T07:19:45.843Z,14.67
2022-12-05T07:22:16.074Z,13.70
2022-12-05T07:24:45.205Z,13.70
2022-12-05T07:27:13.839Z,13.57
2022-12-05T07:29:42.693Z,14.50
2022-12-05T07:32:12.785Z,14.67
2022-12-05T07:34:42.332Z,14.17
2022-12-05T07:37:10.806Z,13.47
2022-12-05T07:39:39.242Z,14.60
2022-12-05T07:42:07.821Z,15.63
2022-12-05T07:44:36.694Z,15.07
2022-12-05T07:47:05.185Z,14.77
2022-12-05T07:49:35.006Z,14.13
2022-12-05T07:52:03.455Z,15.60
2022-12-05T07:54:31.904Z,14.60
2022-12-05T07:57:00.405Z,16.27
2022-12-05T07:59:28.830Z,15.53
2022-12-05T08:01:57.559Z,16.47
2022-12-05T08:04:26.394Z,14.10
2022-12-05T08:06:56.212Z,15.20
2022-12-05T08:09:24.697Z,15.07
2022-12-05T08:11:53.130Z,15.33
2022-12-05T08:14:21.693Z,16.03
2022-12-05T08:16:50.306Z,16.33
2022-12-05T08:19:18.806Z,17.40
2022-12-05T08:21:47.413Z,15.83
2022-12-05T08:24:17.216Z,16.87
2022-12-05T08:26:45.701Z,15.43
2022-12-05T08:29:15.457Z,16.80
2022-12-05T08:31:44.904Z,15.90
2022-12-05T08:34:14.093Z,18.53
2022-12-05T08:36:42.823Z,15.07
2022-12-05T08:39:15.142Z,14.97
2022-12-05T08:41:45.008Z,16.23
2022-12-05T08:44:16.335Z,15.53
2022-12-05T08:46:45.867Z,16.17
2022-12-05T08:49:15.616Z,16.47
2022-12-05T08:51:44.407Z,14.40
2022-12-05T08:54:13.332Z,14.73
2022-12-05T08:56:41.928Z,14.53
2022-12-05T08:59:11.752Z,15.67
2022-12-05T09:01:42.123Z,17.00
2022-12-05T09:04:12.357Z,15.90
2022-12-05T09:06:41.748Z,15.83
2022-12-05T09:09:11.716Z,15.70
2022-12-05T09:11:44.061Z,14.50
2022-12-05T09:14:13.962Z,14.70
2022-12-05T09:16:42.415Z,13.67
2022-12-05T09:19:13.494Z,14.90
2022-12-05T09:21:42.039Z,15.60
2022-12-05T09:24:11.734Z,13.83
2022-12-05T09:26:40.483Z,14.97
2022-12-05T09:29:15.740Z,14.37
2022-12-05T09:31:46.633Z,14.43
2022-12-05T09:34:15.620Z,14.83
2022-12-05T09:36:44.162Z,15.20
2022-12-05T09:39:13.192Z,13.73
2022-12-05T09:42:06.107Z,16.63
2022-12-05T09:44:41.759Z,15.03
2022-12-05T09:47:15.075Z,16.50
2022-12-05T09:49:48.156Z,15.40
2022-12-05T09:52:24.425Z,13.60
2022-12-05T09:54:53.526Z,14.73
2022-12-05T09:57:32.018Z,14.90
2022-12-05T10:00:03.768Z,13.67
2022-12-05T10:02:43.031Z,16.60
2022-12-05T10:05:14.535Z,14.83
2022-12-05T10:07:46.055Z,15.27
2022-12-05T10:10:23.302Z,14.43
2022-12-05T10:12:56.606Z,14.70
2022-12-05T10:15:28.704Z,14.70
2022-12-05T10:18:04.137Z,15.07
2022-12-05T10:20:35.600Z,16.27
2022-12-05T10:23:05.628Z,15.30
2022-12-05T10:25:35.887Z,13.50
2022-12-05T10:28:06.123Z,14.47
2022-12-05T10:30:36.145Z,14.83
2022-12-05T10:33:13.452Z,13.90
2022-12-05T10:35:42.842Z,15.27
2022-12-05T10:38:14.843Z,13.80
2022-12-05T10:40:44.877Z,13.17
2022-12-05T10:43:15.808Z,13.80
2022-12-05T10:45:45.561Z,16.40
2022-12-05T10:48:16.786Z,12.63
2022-12-05T10:50:48.551Z,14.93
2022-12-05T10:53:18.853Z,16.03
2022-12-05T10:56:21.588Z,16.20
2022-12-05T10:58:37.374Z,14.73
2022-12-05T11:01:12.551Z,13.53
2022-12-05T11:03:43.327Z,11.80
2022-12-05T11:06:17.099Z,11.77
2022-12-05T11:09:04.295Z,11.73
2022-12-05T11:11:34.213Z,13.10
2022-12-05T11:14:04.257Z,11.50
2022-12-05T11:16:34.023Z,13.10
2022-12-05T11:19:19.928Z,13.67
2022-12-05T11:21:48.404Z,13.00
2022-12-05T11:24:23.253Z,11.33
2022-12-05T11:26:51.873Z,12.03
2022-12-05T11:29:30.628Z,11.10
2022-12-05T11:31:59.124Z,11.80
2022-12-05T11:34:31.354Z,12.57
2022-12-05T11:37:03.402Z,11.67
2022-12-05T11:39:31.980Z,10.97
2022-12-05T11:42:21.105Z,11.23
2022-12-05T11:44:57.946Z,11.70
2022-12-05T11:47:34.872Z,11.10
2022-12-05T11:50:15.312Z,10.93
2022-12-05T11:52:53.154Z,12.00
2022-12-05T11:55:23.421Z,11.07
2022-12-05T11:58:01.913Z,11.00
2022-12-05T12:00:33.387Z,12.87
2022-12-05T12:03:18.688Z,11.73
2022-12-05T12:05:56.629Z,11.07
2022-12-05T12:08:27.614Z,11.40
2022-12-05T12:11:00.324Z,12.00
2022-12-05T12:13:33.940Z,11.10
2022-12-05T12:16:08.772Z,11.23
2022-12-05T12:18:56.469Z,10.10
2022-12-05T12:21:33.956Z,9.97
2022-12-05T12:24:09.045Z,9.33
2022-12-05T12:26:42.783Z,8.67
2022-12-05T12:29:14.250Z,10.00
2022-12-05T12:31:47.620Z,9.20
2022-12-05T12:34:30.406Z,6.67
2022-12-05T12:37:04.360Z,6.13
2022-12-05T12:39:39.214Z,8.00
2022-12-05T12:42:19.026Z,6.50
2022-12-05T12:44:59.413Z,6.40
2022-12-05T12:47:37.461Z,6.20
2022-12-05T12:50:11.985Z,6.00
2022-12-05T12:52:52.498Z,6.83
2022-12-05T12:55:23.716Z,6.00
2022-12-05T12:57:59.989Z,5.50
2022-12-05T13:00:32.585Z,6.43
2022-12-05T13:03:04.883Z,5.90
2022-12-05T13:05:35.402Z,5.10
2022-12-05T13:08:07.040Z,5.80
2022-12-05T13:10:36.955Z,5.67
2022-12-05T13:13:06.905Z,5.60
2022-12-05T13:15:37.272Z,5.27
2022-12-05T13:18:06.726Z,5.07
2022-12-05T13:20:36.502Z,5.10
2022-12-05T13:23:08.470Z,5.27
2022-12-05T13:25:39.713Z,4.50
2022-12-05T13:28:09.466Z,5.33
2022-12-05T13:30:57.764Z,4.97
2022-12-05T13:33:27.817Z,5.27
2022-12-05T13:36:17.363Z,5.50
2022-12-05T13:39:05.165Z,5.97
2022-12-05T13:42:01.843Z,5.30
2022-12-05T13:44:33.303Z,5.03
2022-12-05T13:47:03.545Z,8.90
2022-12-05T13:49:34.488Z,6.30
2022-12-05T13:52:08.186Z,6.13
2022-12-05T13:54:44.506Z,5.37
2022-12-05T13:57:28.027Z,5.50
2022-12-05T14:00:01.327Z,5.17
2022-12-05T14:02:49.335Z,5.80
2022-12-05T14:05:36.515Z,5.80
2022-12-05T14:08:39.777Z,5.73
2022-12-05T14:11:13.196Z,5.60
2022-12-05T14:13:43.514Z,7.43
2022-12-05T14:16:30.791Z,7.63
2022-12-05T14:19:03.192Z,6.13
2022-12-05T14:21:39.108Z,6.70
2022-12-05T14:24:09.524Z,6.80
2022-12-05T14:26:49.778Z,6.53
2022-12-05T14:29:39.514Z,6.47
2022-12-05T14:32:13.630Z,6.70
2022-12-05T14:34:50.984Z,7.57
2022-12-05T14:37:26.136Z,6.27
2022-12-05T14:39:55.979Z,6.27
2022-12-05T14:42:27.989Z,6.47
2022-12-05T14:44:58.041Z,4.97
2022-12-05T14:47:28.373Z,5.83
2022-12-05T14:50:02.159Z,5.60
2022-12-05T14:52:34.483Z,6.20
2022-12-05T14:55:04.430Z,5.63
2022-12-05T14:57:34.503Z,5.03
2022-12-05T15:00:06.666Z,5.93
2022-12-05T15:02:36.318Z,5.23
2022-12-05T15:05:07.288Z,5.50
2022-12-05T15:07:37.472Z,6.27
2022-12-05T15:10:08.683Z,5.43
2022-12-05T15:12:41.710Z,5.47
2022-12-05T15:15:15.320Z,5.93
2022-12-05T15:17:50.874Z,6.63
2022-12-05T15:20:22.732Z,5.60
2022-12-05T15:22:51.189Z,5.43
2022-12-05T15:25:24.830Z,5.77
2022-12-05T15:27:57.117Z,5.67
2022-12-05T15:30:26.154Z,6.13
2022-12-05T15:32:59.276Z,5.70
2022-12-05T15:35:29.466Z,5.70
2022-12-05T15:37:59.086Z,6.70
2022-12-05T15:40:28.673Z,5.10
2022-12-05T15:42:59.743Z,5.40
2022-12-05T15:45:29.117Z,5.83
2022-12-05T15:47:58.390Z,4.77
2022-12-05T15:50:32.615Z,5.83
2022-12-05T15:53:02.709Z,6.10
2022-12-05T15:55:35.044Z,6.13
2022-12-05T15:58:12.750Z,5.40
2022-12-05T16:00:44.124Z,6.80
2022-12-05T16:03:15.975Z,6.30
2022-12-05T16:05:48.995Z,6.53
2022-12-05T16:08:17.709Z,5.93
2022-12-05T16:10:46.584Z,5.60
2022-12-05T16:13:18.516Z,5.77
2022-12-05T16:15:52.759Z,5.70
2022-12-05T16:18:25.919Z,6.53
2022-12-05T16:20:54.753Z,6.60
2022-12-05T16:23:26.517Z,8.17
2022-12-05T16:25:54.991Z,6.67
2022-12-05T16:28:24.869Z,5.53
2022-12-05T16:31:00.426Z,5.70
2022-12-05T16:33:29.917Z,6.40
2022-12-05T16:35:58.667Z,6.23
2022-12-05T16:38:31.991Z,6.37
2022-12-05T16:41:01.385Z,6.33
2022-12-05T16:43:44.788Z,5.80
2022-12-05T16:46:43.121Z,6.73
2022-12-05T16:49:32.886Z,7.57
2022-12-05T16:52:02.160Z,8.13
2022-12-05T16:54:31.056Z,6.90
2022-12-05T16:57:00.847Z,6.87
2022-12-05T16:59:33.712Z,7.33
2022-12-05T17:02:04.033Z,7.07
2022-12-05T17:04:32.965Z,6.77
2022-12-05T17:07:01.755Z,6.97
2022-12-05T17:09:30.289Z,6.80
2022-12-05T17:12:02.944Z,6.60
2022-12-05T17:14:32.719Z,7.43
2022-12-05T17:17:01.282Z,6.13
2022-12-05T17:19:29.760Z,7.00
2022-12-05T17:21:58.288Z,7.90
2022-12-05T17:24:28.601Z,6.57
2022-12-05T17:26:57.068Z,7.40
2022-12-05T17:29:25.545Z,6.73
2022-12-05T17:31:56.989Z,7.60
2022-12-05T17:34:25.575Z,6.10
2022-12-05T17:36:54.095Z,6.93
2022-12-05T17:39:28.137Z,6.17
2022-12-05T17:41:57.010Z,7.20
2022-12-05T17:44:25.739Z,7.57
2022-12-05T17:46:54.477Z,6.83
2022-12-05T17:49:25.110Z,7.13
2022-12-05T17:54:42.733Z,7.63
2022-12-05T17:57:11.238Z,7.27
2022-12-05T17:59:39.669Z,7.47
2022-12-05T18:02:08.471Z,7.77
2022-12-05T18:04:38.310Z,5.70
2022-12-05T18:07:07.097Z,7.30
2022-12-05T18:09:35.922Z,6.80
2022-12-05T18:12:04.559Z,5.87
2022-12-05T18:14:36.097Z,6.13
2022-12-05T18:17:04.859Z,7.00
2022-12-05T18:19:36.371Z,7.33
2022-12-05T18:22:09.410Z,6.60
2022-12-05T18:24:38.106Z,7.20
2022-12-05T18:27:06.870Z,6.80
2022-12-05T18:29:35.587Z,8.23
2022-12-05T18:32:04.287Z,7.70
2022-12-05T18:34:33.381Z,9.83
2022-12-05T18:57:25.799Z,8.87
2022-12-05T19:00:27.025Z,7.93
2022-12-05T19:06:58.032Z,9.47
2022-12-05T19:13:25.935Z,9.00
2022-12-05T19:15:54.508Z,7.97
2022-12-05T19:18:22.962Z,7.93
2022-12-05T19:20:52.840Z,8.10
2022-12-05T19:23:21.314Z,8.03
2022-12-05T19:25:50.059Z,7.83
2022-12-05T19:28:18.592Z,7.93
2022-12-05T19:30:48.613Z,8.10
2022-12-05T19:33:17.134Z,7.37
2022-12-05T19:35:47.737Z,7.93
2022-12-05T19:38:16.533Z,7.17
2022-12-05T19:40:45.355Z,8.60
2022-12-05T19:43:13.823Z,7.93
2022-12-05T19:45:42.327Z,8.10
2022-12-05T19:48:12.185Z,7.70
2022-12-05T19:50:40.815Z,8.20
2022-12-05T19:53:12.264Z,7.73
2022-12-05T19:55:41.507Z,7.83
2022-12-05T19:58:09.999Z,8.70
2022-12-05T20:00:38.509Z,7.07
2022-12-05T20:03:12.185Z,7.63
2022-12-05T20:05:42.369Z,7.10
2022-12-05T20:08:10.914Z,7.47
2022-12-05T20:10:40.161Z,7.20
2022-12-05T20:13:44.791Z,7.07
2022-12-05T20:15:57.623Z,7.23
2022-12-05T20:18:26.291Z,7.63
2022-12-05T20:20:59.547Z,7.17
2022-12-05T20:23:28.164Z,6.93
2022-12-05T20:25:56.919Z,7.23
2022-12-05T20:28:25.831Z,6.30
2022-12-05T20:30:54.434Z,6.83
2022-12-05T20:33:23.035Z,8.20
2022-12-05T20:35:51.671Z,7.27
2022-12-05T20:38:21.534Z,7.27
2022-12-05T20:40:50.011Z,8.43
2022-12-05T20:43:18.419Z,8.23
2022-12-05T20:45:47.074Z,7.90
2022-12-05T20:48:15.663Z,7.37
2022-12-05T20:50:44.114Z,7.57
2022-12-05T20:53:12.585Z,7.40
2022-12-05T20:55:43.873Z,8.37
2022-12-05T20:58:12.357Z,6.53
2022-12-05T21:00:40.968Z,7.23
2022-12-05T21:03:14.172Z,8.60
2022-12-05T21:05:45.404Z,8.33
2022-12-05T21:08:14.440Z,8.27
2022-12-05T21:10:48.059Z,7.57
2022-12-05T21:13:16.847Z,8.13
2022-12-05T21:15:45.627Z,8.77
2022-12-05T21:18:14.257Z,7.13
2022-12-05T21:20:42.767Z,8.43
2022-12-05T21:23:11.315Z,7.80
2022-12-05T21:25:40.250Z,7.67
2022-12-05T21:28:10.131Z,8.80
2022-12-05T21:30:38.574Z,8.33
2022-12-05T21:33:07.039Z,8.77
2022-12-05T21:35:37.874Z,8.83
2022-12-05T21:38:06.272Z,8.63
2022-12-05T21:40:34.703Z,8.43
2022-12-05T21:43:03.111Z,7.53
2022-12-05T21:45:32.976Z,7.70
2022-12-05T21:48:01.620Z,9.57
2022-12-05T21:50:30.166Z,8.13
2022-12-05T21:52:58.658Z,7.23
2022-12-05T21:55:27.103Z,9.43
2022-12-05T21:57:55.554Z,8.43
2022-12-05T22:00:24.046Z,9.13
2022-12-05T22:02:53.994Z,8.10
2022-12-05T22:05:22.515Z,8.67
2022-12-05T22:07:51.042Z,7.70
2022-12-05T22:10:19.592Z,8.27
2022-12-05T22:12:48.159Z,8.20
2022-12-05T22:15:16.569Z,9.23
2022-12-05T22:17:45.065Z,8.33
2022-12-05T22:20:14.993Z,9.57
2022-12-05T22:22:43.491Z,8.00
2022-12-05T22:25:12.016Z,8.40
2022-12-05T22:27:40.483Z,8.73
2022-12-05T22:30:09.385Z,9.03
2022-12-05T22:32:37.823Z,8.27
2022-12-05T22:35:06.606Z,9.27
2022-12-05T22:37:36.453Z,9.23
2022-12-05T22:40:06.243Z,10.80
2022-12-05T22:42:34.745Z,10.27
2022-12-05T22:45:03.192Z,9.33
2022-12-05T22:47:31.621Z,10.70
2022-12-05T22:50:00.319Z,10.20
2022-12-05T22:52:29.093Z,8.73
2022-12-05T22:54:59.225Z,11.33
2022-12-05T22:57:27.951Z,10.90
2022-12-05T22:59:56.586Z,9.77
2022-12-05T23:02:25.363Z,10.17
2022-12-05T23:04:54.004Z,10.93
2022-12-05T23:07:22.543Z,9.80
2022-12-05T23:09:51.139Z,9.00
2022-12-05T23:12:21.129Z,10.87
2022-12-05T23:14:49.655Z,10.00
2022-12-05T23:17:18.251Z,11.20
2022-12-05T23:19:46.908Z,10.80
2022-12-05T23:22:15.676Z,11.47
2022-12-05T23:24:44.196Z,10.57
2022-12-05T23:27:12.851Z,10.87
2022-12-05T23:29:42.815Z,11.37
2022-12-05T23:32:11.367Z,11.37
2022-12-05T23:34:39.943Z,10.80
2022-12-05T23:37:08.749Z,11.73
2022-12-05T23:39:37.363Z,11.57
2022-12-05T23:42:08.561Z,12.17
2022-12-05T23:44:39.399Z,13.07
2022-12-05T23:47:09.494Z,12.63
2022-12-05T23:49:38.104Z,12.27
2022-12-05T23:52:06.783Z,12.80
2022-12-05T23:54:35.683Z,14.00
2022-12-05T23:57:04.301Z,12.57
2022-12-05T23:59:32.856Z,12.27
